Lutcher, Louisiana
Current Conditions -  °F | °C
As of 10:35 AM on Monday 26 Jan 2015 (Local Time) from K1L0 Reporting Station
Clear Clear  
Wind Chill: 13°   Ceiling: Unl
Heat Index: 13°   Visibility: 10mi
Dew Point:   Wind: 10mph
Humidity: 46%   Direction: 330°NNW
Pressure: 30.15"   Gusts: 22mph
Location:  30.04°N, 90.7°W
Report Text: K1L0 261635Z AUTO 33009G19KT 10SM CLR 13/02 A3015 RMK AO2 T01340021
Loading
Personal Weather Stations






























Interactive Weather Map New forecast layout! Learn more

10-Day Weather Forecast

Advertisements
Track Severe Weather on mobile